createdAt,value
2022-10-14T00:01:12.615Z,25.43
2022-10-14T00:03:41.455Z,17.77
2022-10-14T00:06:12.171Z,17.03
2022-10-14T00:08:41.244Z,20.27
2022-10-14T00:11:17.464Z,15.47
2022-10-14T00:13:45.952Z,16.00
2022-10-14T00:16:21.431Z,15.70
2022-10-14T00:18:50.159Z,16.17
2022-10-14T00:21:18.503Z,14.03
2022-10-14T00:23:47.535Z,11.03
2022-10-14T00:26:17.889Z,16.27
2022-10-14T00:28:46.124Z,14.73
2022-10-14T00:31:14.223Z,12.10
2022-10-14T00:33:45.445Z,13.27
2022-10-14T00:36:15.754Z,13.63
2022-10-14T00:38:45.315Z,15.37
2022-10-14T00:41:16.875Z,12.93
2022-10-14T00:44:03.111Z,11.13
2022-10-14T00:46:33.925Z,11.20
2022-10-14T00:49:10.075Z,15.17
2022-10-14T00:51:39.675Z,18.13
2022-10-14T00:54:08.364Z,15.53
2022-10-14T00:56:37.248Z,14.77
2022-10-14T00:59:09.240Z,16.67
2022-10-14T01:01:37.295Z,12.30
2022-10-14T01:04:07.361Z,16.30
2022-10-14T01:06:44.124Z,12.37
2022-10-14T01:09:21.104Z,14.63
2022-10-14T01:12:27.011Z,11.70
2022-10-14T01:14:59.844Z,14.70
2022-10-14T01:17:37.324Z,14.33
2022-10-14T01:20:48.150Z,12.00
2022-10-14T01:24:06.616Z,16.53
2022-10-14T01:26:54.694Z,12.73
2022-10-14T01:29:44.281Z,11.63
2022-10-14T01:32:18.554Z,15.07
2022-10-14T01:34:55.043Z,18.57
2022-10-14T01:37:27.520Z,15.40
2022-10-14T01:40:01.603Z,14.50
2022-10-14T01:45:39.072Z,14.87
2022-10-14T01:48:07.644Z,18.43
2022-10-14T01:50:38.963Z,14.77
2022-10-14T01:53:12.157Z,21.47
2022-10-14T01:55:45.457Z,16.87
2022-10-14T01:58:15.561Z,14.90
2022-10-14T02:00:47.910Z,12.50
2022-10-14T02:03:15.897Z,12.37
2022-10-14T02:05:48.789Z,15.97
2022-10-14T02:08:27.012Z,14.33
2022-10-14T02:11:12.312Z,13.53
2022-10-14T02:14:11.241Z,18.43
2022-10-14T02:16:44.902Z,13.90
2022-10-14T02:19:24.464Z,14.00
2022-10-14T02:21:57.326Z,12.33
2022-10-14T02:24:30.407Z,15.53
2022-10-14T02:27:01.681Z,14.40
2022-10-14T02:29:31.696Z,15.23
2022-10-14T02:32:02.017Z,19.33
2022-10-14T02:34:29.960Z,15.07
2022-10-14T02:37:00.709Z,17.63
2022-10-14T02:39:36.603Z,16.17
2022-10-14T02:42:06.375Z,13.33
2022-10-14T02:44:35.656Z,17.60
2022-10-14T02:47:05.046Z,13.80
2022-10-14T02:49:33.321Z,12.10
2022-10-14T02:52:01.218Z,15.93
2022-10-14T02:54:29.147Z,13.33
2022-10-14T02:56:58.919Z,12.27
2022-10-14T02:59:27.057Z,11.07
2022-10-14T03:01:56.368Z,15.80
2022-10-14T03:04:25.954Z,14.67
2022-10-14T03:06:54.951Z,14.37
2022-10-14T03:09:25.148Z,15.93
2022-10-14T03:11:53.171Z,16.30
2022-10-14T03:14:22.780Z,15.80
2022-10-14T03:16:51.918Z,15.30
2022-10-14T03:19:25.141Z,15.17
2022-10-14T03:21:56.212Z,12.33
2022-10-14T03:24:24.103Z,17.93
2022-10-14T03:27:10.720Z,19.37
2022-10-14T03:29:39.003Z,18.87
2022-10-14T03:32:14.517Z,15.90
2022-10-14T03:35:02.520Z,15.13
2022-10-14T03:37:30.487Z,20.27
2022-10-14T03:39:59.784Z,13.23
2022-10-14T03:42:27.813Z,17.93
2022-10-14T03:44:56.611Z,15.37
2022-10-14T03:47:28.835Z,22.00
2022-10-14T03:49:57.068Z,16.67
2022-10-14T03:52:43.638Z,11.43
2022-10-14T03:55:22.658Z,14.90
2022-10-14T03:57:52.293Z,18.67
2022-10-14T04:00:21.150Z,16.37
2022-10-14T04:02:58.723Z,10.50
2022-10-14T04:05:37.934Z,17.37
2022-10-14T04:08:13.087Z,13.70
2022-10-14T04:10:46.051Z,11.57
2022-10-14T04:13:15.811Z,11.67
2022-10-14T04:15:43.796Z,14.30
2022-10-14T04:18:17.724Z,13.27
2022-10-14T04:20:46.467Z,14.60
2022-10-14T04:23:17.248Z,9.83
2022-10-14T04:25:47.713Z,20.43
2022-10-14T04:28:15.709Z,15.67
2022-10-14T04:30:57.630Z,12.83
2022-10-14T04:33:30.012Z,18.53
2022-10-14T04:36:08.008Z,17.03
2022-10-14T04:38:39.924Z,17.10
2022-10-14T04:41:10.263Z,14.77
2022-10-14T04:43:43.325Z,15.40
2022-10-14T04:46:22.728Z,14.67
2022-10-14T04:48:50.987Z,14.10
2022-10-14T04:51:20.482Z,12.20
2022-10-14T04:54:08.115Z,10.47
2022-10-14T04:56:49.977Z,20.17
2022-10-14T04:59:17.930Z,15.27
2022-10-14T05:02:18.205Z,15.47
2022-10-14T05:04:53.827Z,14.83
2022-10-14T05:07:22.478Z,18.77
2022-10-14T05:09:57.412Z,13.03
2022-10-14T05:12:34.928Z,13.47
2022-10-14T05:15:06.031Z,9.80
2022-10-14T05:17:44.389Z,14.47
2022-10-14T05:20:14.763Z,16.67
2022-10-14T05:22:45.700Z,9.80
2022-10-14T05:25:15.284Z,13.80
2022-10-14T05:27:44.033Z,10.80
2022-10-14T05:30:13.368Z,14.70
2022-10-14T05:32:46.296Z,10.60
2022-10-14T05:35:14.895Z,13.13
2022-10-14T05:37:42.840Z,11.43
2022-10-14T05:40:11.799Z,10.07
2022-10-14T05:42:41.211Z,10.63
2022-10-14T05:45:10.809Z,8.43
2022-10-14T05:47:45.553Z,10.63
2022-10-14T05:50:18.058Z,9.93
2022-10-14T05:52:47.978Z,9.57
2022-10-14T05:55:24.568Z,10.63
2022-10-14T05:57:59.227Z,11.03
2022-10-14T06:00:33.363Z,10.10
2022-10-14T06:03:06.527Z,12.60
2022-10-14T06:05:36.571Z,11.07
2022-10-14T06:08:05.082Z,10.03
2022-10-14T06:10:36.423Z,8.10
2022-10-14T06:13:06.316Z,14.93
2022-10-14T06:15:37.615Z,11.83
2022-10-14T06:18:07.113Z,9.17
2022-10-14T06:20:35.250Z,14.37
2022-10-14T06:23:03.492Z,12.13
2022-10-14T06:25:31.966Z,13.37
2022-10-14T06:28:04.236Z,12.47
2022-10-14T06:30:34.242Z,12.73
2022-10-14T06:33:02.171Z,10.70
2022-10-14T06:35:30.162Z,6.90
2022-10-14T06:37:58.686Z,10.27
2022-10-14T06:40:26.611Z,9.83
2022-10-14T06:42:54.641Z,10.67
2022-10-14T06:45:22.583Z,9.73
2022-10-14T06:47:51.818Z,7.87
2022-10-14T06:50:19.811Z,13.67
2022-10-14T06:52:48.755Z,10.47
2022-10-14T06:55:17.966Z,14.00
2022-10-14T06:57:45.978Z,7.43
2022-10-14T07:00:14.656Z,10.03
2022-10-14T07:02:42.540Z,10.23
2022-10-14T07:05:12.295Z,8.53
2022-10-14T07:07:40.190Z,8.57
2022-10-14T07:10:08.631Z,10.60
2022-10-14T07:12:36.544Z,11.27
2022-10-14T07:15:05.157Z,11.27
2022-10-14T07:17:33.264Z,7.73
2022-10-14T07:20:01.642Z,10.43
2022-10-14T07:22:33.034Z,8.10
2022-10-14T07:25:05.477Z,14.53
2022-10-14T07:27:33.788Z,7.53
2022-10-14T07:30:02.486Z,10.07
2022-10-14T07:32:30.411Z,13.77
2022-10-14T07:34:58.884Z,13.77
2022-10-14T07:37:26.784Z,13.33
2022-10-14T07:39:56.221Z,8.47
2022-10-14T07:42:24.072Z,6.80
2022-10-14T07:44:54.143Z,10.93
2022-10-14T07:47:22.523Z,8.33
2022-10-14T07:49:51.263Z,11.87
2022-10-14T07:52:19.690Z,10.83
2022-10-14T07:54:47.644Z,10.83
2022-10-14T07:57:17.166Z,8.57
2022-10-14T07:59:46.233Z,10.43
2022-10-14T08:02:14.411Z,12.07
2022-10-14T08:04:42.294Z,8.70
2022-10-14T08:07:10.382Z,11.87
2022-10-14T08:09:38.253Z,14.17
2022-10-14T08:12:06.597Z,9.43
2022-10-14T08:14:35.841Z,10.47
2022-10-14T08:17:03.869Z,9.10
2022-10-14T08:19:31.933Z,9.87
2022-10-14T08:21:59.847Z,12.13
2022-10-14T08:24:27.767Z,10.50
2022-10-14T08:26:57.053Z,13.53
2022-10-14T08:29:26.410Z,9.70
2022-10-14T08:31:55.708Z,14.57
2022-10-14T08:34:24.461Z,13.40
2022-10-14T08:36:52.938Z,10.47
2022-10-14T08:39:21.450Z,6.80
2022-10-14T08:42:17.295Z,12.10
2022-10-14T08:44:50.653Z,11.40
2022-10-14T08:47:24.140Z,15.07
2022-10-14T08:50:01.526Z,8.73
2022-10-14T08:52:37.728Z,8.53
2022-10-14T08:55:20.744Z,10.50
2022-10-14T08:57:52.552Z,8.93
2022-10-14T09:00:21.955Z,13.73
2022-10-14T09:02:52.685Z,6.17
2022-10-14T09:05:23.642Z,6.67
2022-10-14T09:07:54.664Z,5.90
2022-10-14T09:10:31.282Z,8.30
2022-10-14T09:13:04.411Z,8.17
2022-10-14T09:15:38.786Z,5.57
2022-10-14T09:18:21.028Z,7.30
2022-10-14T09:20:49.650Z,7.63
2022-10-14T09:23:19.832Z,10.03
2022-10-14T09:25:56.528Z,8.30
2022-10-14T09:28:31.088Z,7.73
2022-10-14T09:30:59.101Z,6.27
2022-10-14T09:33:29.683Z,8.87
2022-10-14T09:38:27.998Z,6.77
2022-10-14T09:40:59.454Z,5.83
2022-10-14T09:43:27.541Z,7.57
2022-10-14T09:45:59.283Z,8.97
2022-10-14T09:48:41.110Z,5.67
2022-10-14T09:51:11.420Z,9.00
2022-10-14T09:53:42.265Z,11.80
2022-10-14T09:56:11.230Z,11.47
2022-10-14T09:58:45.696Z,11.23
2022-10-14T10:01:17.164Z,12.23
2022-10-14T10:03:47.978Z,10.20
2022-10-14T10:06:19.058Z,10.40
2022-10-14T10:08:57.520Z,7.63
2022-10-14T10:11:30.058Z,5.20
2022-10-14T10:13:58.327Z,14.60
2022-10-14T10:16:31.280Z,24.57
2022-10-14T10:19:27.075Z,9.67
2022-10-14T10:21:55.524Z,7.83
2022-10-14T10:24:27.393Z,9.10
2022-10-14T10:26:58.433Z,8.93
2022-10-14T10:29:32.315Z,8.20
2022-10-14T10:32:12.069Z,11.17
2022-10-14T10:35:05.998Z,13.83
2022-10-14T10:37:41.012Z,7.67
2022-10-14T10:40:35.500Z,8.77
2022-10-14T10:43:32.831Z,11.53
2022-10-14T10:46:13.951Z,11.27
2022-10-14T10:48:48.034Z,8.70
2022-10-14T10:51:26.747Z,10.03
2022-10-14T10:54:07.907Z,7.30
2022-10-14T10:56:42.568Z,8.30
2022-10-14T10:59:36.611Z,8.30
2022-10-14T11:02:28.695Z,10.87
2022-10-14T11:05:04.263Z,7.10
2022-10-14T11:08:05.535Z,6.70
2022-10-14T11:11:00.175Z,6.67
2022-10-14T11:13:37.950Z,12.33
2022-10-14T11:16:12.886Z,10.57
2022-10-14T11:18:49.494Z,10.13
2022-10-14T11:21:27.136Z,8.83
2022-10-14T11:24:07.119Z,9.97
2022-10-14T11:26:54.282Z,5.03
2022-10-14T11:29:38.835Z,15.43
2022-10-14T11:32:19.182Z,6.50
2022-10-14T11:34:58.292Z,5.63
2022-10-14T11:37:30.679Z,7.37
2022-10-14T11:40:06.836Z,5.73
2022-10-14T11:42:49.149Z,7.03
2022-10-14T11:45:53.325Z,7.43
2022-10-14T11:48:33.603Z,8.50
2022-10-14T11:51:11.935Z,6.90
2022-10-14T11:53:56.922Z,5.80
2022-10-14T11:56:35.320Z,5.47
2022-10-14T11:59:29.780Z,4.53
2022-10-14T12:02:13.268Z,6.60
2022-10-14T12:04:44.908Z,4.33
2022-10-14T12:07:18.600Z,5.73
2022-10-14T12:09:59.014Z,5.77
2022-10-14T12:12:31.409Z,8.27
2022-10-14T12:15:02.606Z,2.70
2022-10-14T12:17:35.218Z,7.13
2022-10-14T12:20:16.708Z,3.50
2022-10-14T12:22:46.318Z,5.17
2022-10-14T12:25:17.936Z,4.97
2022-10-14T12:27:47.866Z,4.43
2022-10-14T12:30:40.134Z,4.93
2022-10-14T12:33:11.612Z,6.13
2022-10-14T12:35:59.382Z,4.30
2022-10-14T12:38:29.044Z,2.77
2022-10-14T12:41:35.104Z,3.50
2022-10-14T12:44:06.498Z,1.70
2022-10-14T12:46:44.878Z,4.50
2022-10-14T12:49:19.811Z,4.37
2022-10-14T12:51:55.091Z,5.43
2022-10-14T12:54:24.805Z,2.77
2022-10-14T12:56:59.501Z,5.70
2022-10-14T12:59:32.841Z,5.07
2022-10-14T13:02:04.498Z,2.20
2022-10-14T13:04:33.706Z,4.57
2022-10-14T13:07:40.300Z,5.37
2022-10-14T13:10:47.151Z,3.00
2022-10-14T13:13:53.423Z,3.10
2022-10-14T13:17:04.161Z,3.70
2022-10-14T13:19:48.787Z,3.77
2022-10-14T13:22:36.713Z,2.20
2022-10-14T13:25:12.139Z,2.27
2022-10-14T13:27:48.995Z,3.27
2022-10-14T13:30:34.907Z,3.30
2022-10-14T13:33:12.557Z,4.87
2022-10-14T13:35:52.378Z,4.90
2022-10-14T13:38:23.651Z,2.07
2022-10-14T13:40:55.282Z,4.57
2022-10-14T13:43:27.161Z,2.03
2022-10-14T13:46:04.346Z,2.13
2022-10-14T13:48:35.495Z,2.27
2022-10-14T13:51:36.215Z,1.17
2022-10-14T13:54:17.503Z,3.50
2022-10-14T13:57:12.634Z,0.97
2022-10-14T14:00:19.493Z,1.43
2022-10-14T14:02:43.468Z,6.63
2022-10-14T14:05:18.483Z,3.67
2022-10-14T14:10:51.448Z,2.50
2022-10-14T14:13:25.974Z,1.43
2022-10-14T14:15:55.824Z,1.43
2022-10-14T14:18:49.246Z,2.73
2022-10-14T14:21:26.640Z,1.47
2022-10-14T14:23:58.111Z,1.80
2022-10-14T14:26:33.985Z,3.83
2022-10-14T14:29:05.835Z,7.00
2022-10-14T14:32:01.477Z,3.80
2022-10-14T14:34:24.603Z,0.90
2022-10-14T14:36:55.721Z,2.00
2022-10-14T14:39:29.970Z,3.33
2022-10-14T14:42:00.683Z,1.30
2022-10-14T14:44:33.249Z,4.53
2022-10-14T14:47:04.636Z,1.53
2022-10-14T14:49:36.372Z,3.03
2022-10-14T14:52:06.854Z,1.00
2022-10-14T14:54:46.242Z,1.20
2022-10-14T14:57:19.613Z,1.50
2022-10-14T14:59:59.340Z,1.30
2022-10-14T15:02:27.356Z,1.33
2022-10-14T15:05:03.595Z,2.13
2022-10-14T15:07:31.816Z,3.23
2022-10-14T15:10:03.212Z,4.53
2022-10-14T15:12:34.172Z,5.17
2022-10-14T15:15:03.371Z,2.40
2022-10-14T15:17:34.411Z,2.20
2022-10-14T15:20:25.700Z,6.03
2022-10-14T15:22:53.618Z,4.80
2022-10-14T15:25:30.008Z,6.10
2022-10-14T15:27:58.935Z,7.20
2022-10-14T15:30:31.806Z,3.50
2022-10-14T15:33:01.829Z,3.90
2022-10-14T15:35:30.673Z,2.03
2022-10-14T15:37:58.769Z,1.83
2022-10-14T15:40:30.631Z,3.47
2022-10-14T15:42:59.564Z,8.17
2022-10-14T15:45:27.603Z,5.97
2022-10-14T15:48:00.921Z,2.70
2022-10-14T15:50:29.037Z,3.30
2022-10-14T15:52:57.107Z,2.53
2022-10-14T15:55:27.952Z,3.97
2022-10-14T15:57:57.422Z,2.83
2022-10-14T16:00:26.326Z,3.80
2022-10-14T16:02:58.314Z,2.57
2022-10-14T16:05:27.144Z,3.60
2022-10-14T16:07:55.056Z,1.67
2022-10-14T16:10:24.632Z,2.20
2022-10-14T16:12:52.938Z,4.10
2022-10-14T16:15:32.392Z,4.00
2022-10-14T16:18:01.780Z,4.37
2022-10-14T16:20:30.820Z,6.80
2022-10-14T16:22:59.378Z,6.40
2022-10-14T16:25:34.412Z,2.30
2022-10-14T16:28:09.962Z,6.30
2022-10-14T16:30:44.049Z,2.00
2022-10-14T16:35:51.759Z,4.10
2022-10-14T16:38:20.147Z,2.80
2022-10-14T16:40:55.196Z,4.20
2022-10-14T16:43:23.244Z,1.57
2022-10-14T16:45:52.694Z,3.33
2022-10-14T16:48:20.719Z,2.17
2022-10-14T16:50:53.953Z,1.30
2022-10-14T16:53:43.578Z,3.40
2022-10-14T16:56:32.539Z,3.07
2022-10-14T16:59:02.080Z,4.40
2022-10-14T17:01:32.263Z,5.93
2022-10-14T17:04:00.379Z,3.43
2022-10-14T17:06:29.064Z,4.93
2022-10-14T17:08:57.012Z,4.03
2022-10-14T17:11:27.382Z,3.47
2022-10-14T17:13:56.898Z,6.60
2022-10-14T17:16:25.150Z,12.30
2022-10-14T17:18:54.464Z,18.97
2022-10-14T17:21:24.295Z,10.67
2022-10-14T17:23:52.232Z,10.43
2022-10-14T17:26:21.026Z,17.07
2022-10-14T17:28:49.780Z,45.53
2022-10-14T17:31:22.733Z,20.20
2022-10-14T17:33:51.404Z,6.40
2022-10-14T17:36:22.940Z,9.10
2022-10-14T17:38:52.740Z,7.80
2022-10-14T17:41:20.929Z,12.30
2022-10-14T17:43:49.940Z,16.47
2022-10-14T17:46:20.782Z,33.87
2022-10-14T17:48:51.775Z,26.20
2022-10-14T17:51:22.928Z,13.33
2022-10-14T17:53:53.626Z,32.73
2022-10-14T17:56:22.047Z,9.17
2022-10-14T17:58:53.168Z,21.30
2022-10-14T18:01:36.675Z,33.47
2022-10-14T18:04:09.701Z,12.33
2022-10-14T18:06:39.023Z,5.43
2022-10-14T18:09:09.392Z,7.83
2022-10-14T18:12:07.184Z,6.67
2022-10-14T18:14:29.005Z,4.83
2022-10-14T18:16:56.936Z,6.27
2022-10-14T18:19:24.887Z,4.77
2022-10-14T18:21:54.194Z,5.67
2022-10-14T18:24:22.671Z,7.47
2022-10-14T18:26:50.773Z,8.33
2022-10-14T18:29:18.889Z,6.93
2022-10-14T18:31:47.026Z,9.50
2022-10-14T18:34:14.968Z,8.50
2022-10-14T18:36:43.002Z,15.43
2022-10-14T18:39:13.386Z,13.13
2022-10-14T18:41:41.984Z,6.40
2022-10-14T18:44:10.042Z,3.87
2022-10-14T18:46:39.347Z,4.77
2022-10-14T18:49:09.438Z,3.40
2022-10-14T18:51:39.311Z,3.77
2022-10-14T18:54:10.150Z,7.80
2022-10-14T18:56:39.695Z,12.63
2022-10-14T18:59:10.179Z,11.13
2022-10-14T19:01:39.610Z,7.50
2022-10-14T19:04:10.223Z,6.53
2022-10-14T19:06:38.147Z,4.37
2022-10-14T19:09:06.949Z,5.93
2022-10-14T19:11:35.632Z,4.57
2022-10-14T19:14:06.407Z,6.87
2022-10-14T19:16:38.213Z,7.97
2022-10-14T19:19:11.697Z,8.60
2022-10-14T19:21:40.195Z,6.80
2022-10-14T19:24:09.171Z,6.57
2022-10-14T19:26:39.616Z,4.50
2022-10-14T19:29:11.593Z,4.07
2022-10-14T19:31:40.793Z,5.83
2022-10-14T19:34:11.613Z,3.40
2022-10-14T19:36:40.421Z,4.07
2022-10-14T19:39:09.827Z,2.80
2022-10-14T19:41:42.632Z,6.17
2022-10-14T19:44:12.621Z,4.87
2022-10-14T19:46:41.249Z,7.90
2022-10-14T19:49:09.161Z,6.23
2022-10-14T19:51:37.127Z,3.87
2022-10-14T19:54:05.285Z,4.93
2022-10-14T19:56:33.295Z,3.20
2022-10-14T19:59:01.803Z,4.53
2022-10-14T20:01:32.087Z,6.67
2022-10-14T20:04:01.637Z,5.27
2022-10-14T20:06:33.263Z,7.73
2022-10-14T20:09:01.478Z,2.23
2022-10-14T20:11:29.819Z,5.83
2022-10-14T20:13:57.787Z,3.43
2022-10-14T20:16:26.332Z,2.67
2022-10-14T20:18:56.523Z,2.90
2022-10-14T20:21:24.849Z,2.03
2022-10-14T20:23:52.897Z,4.33
2022-10-14T20:26:22.429Z,5.07
2022-10-14T20:28:51.240Z,2.67
2022-10-14T20:31:22.175Z,1.43
2022-10-14T20:33:50.211Z,2.57
2022-10-14T20:36:21.369Z,2.03
2022-10-14T20:38:50.027Z,3.00
2022-10-14T20:41:20.168Z,7.40
2022-10-14T20:43:48.775Z,3.97
2022-10-14T20:46:17.182Z,3.80
2022-10-14T20:48:45.815Z,0.90
2022-10-14T20:51:16.377Z,1.77
2022-10-14T20:53:45.688Z,2.90
2022-10-14T20:56:14.393Z,1.20
2022-10-14T20:58:42.698Z,3.90
2022-10-14T21:01:12.934Z,3.27
2022-10-14T21:03:42.200Z,2.00
2022-10-14T21:06:13.778Z,2.07
2022-10-14T21:08:42.588Z,1.20
2022-10-14T21:11:15.108Z,1.17
2022-10-14T21:13:45.673Z,1.97
2022-10-14T21:16:15.232Z,2.10
2022-10-14T21:18:46.383Z,1.97
2022-10-14T21:21:16.650Z,1.33
2022-10-14T21:23:45.942Z,1.47
2022-10-14T21:26:15.952Z,2.20
2022-10-14T21:28:44.186Z,1.47
2022-10-14T21:31:17.355Z,1.40
2022-10-14T21:33:47.512Z,4.03
2022-10-14T21:36:17.492Z,2.53
2022-10-14T21:38:45.469Z,2.00
2022-10-14T21:41:15.082Z,1.60
2022-10-14T21:43:43.075Z,2.20
2022-10-14T21:46:12.755Z,1.10
2022-10-14T21:48:42.285Z,2.27
2022-10-14T21:51:12.362Z,2.23
2022-10-14T21:53:41.608Z,0.77
2022-10-14T21:56:10.646Z,1.80
2022-10-14T21:58:40.132Z,1.13
2022-10-14T22:01:09.917Z,1.70
2022-10-14T22:03:38.701Z,1.20
2022-10-14T22:06:09.313Z,1.87
2022-10-14T22:08:39.547Z,1.53
2022-10-14T22:11:09.234Z,1.73
2022-10-14T22:13:37.282Z,1.50
2022-10-14T22:16:06.777Z,2.27
2022-10-14T22:18:35.034Z,0.93
2022-10-14T22:21:06.994Z,1.10
2022-10-14T22:23:36.735Z,3.30
2022-10-14T22:26:05.656Z,0.77
2022-10-14T22:28:33.773Z,0.67
2022-10-14T22:31:06.601Z,2.20
2022-10-14T22:33:35.461Z,1.33
2022-10-14T22:36:07.786Z,1.80
2022-10-14T22:38:36.276Z,2.53
2022-10-14T22:41:04.973Z,0.90
2022-10-14T22:43:33.154Z,1.17
2022-10-14T22:46:02.202Z,4.20
2022-10-14T22:48:32.268Z,3.33
2022-10-14T22:51:04.307Z,5.67
2022-10-14T22:53:32.607Z,1.03
2022-10-14T22:56:01.095Z,1.87
2022-10-14T22:58:29.157Z,2.27
2022-10-14T23:00:57.127Z,4.90
2022-10-14T23:03:25.549Z,1.70
2022-10-14T23:06:00.552Z,1.20
2022-10-14T23:08:28.495Z,2.10
2022-10-14T23:10:56.482Z,1.93
2022-10-14T23:13:24.334Z,1.50
2022-10-14T23:15:59.045Z,0.93
2022-10-14T23:18:28.514Z,2.80
2022-10-14T23:20:57.804Z,1.47
2022-10-14T23:23:25.771Z,0.93
2022-10-14T23:25:53.637Z,0.70
2022-10-14T23:28:21.593Z,0.80
2022-10-14T23:30:49.540Z,9.10
2022-10-14T23:33:17.464Z,5.17
2022-10-14T23:35:45.408Z,0.93
2022-10-14T23:38:14.816Z,1.50
2022-10-14T23:40:42.830Z,2.10
2022-10-14T23:43:10.733Z,1.17
2022-10-14T23:45:38.752Z,1.97
2022-10-14T23:48:07.599Z,1.17
2022-10-14T23:50:35.500Z,1.53
2022-10-14T23:53:03.521Z,2.13
2022-10-14T23:55:32.765Z,0.93
2022-10-14T23:58:00.687Z,1.07
